sensor_id;sensor_type;location;lat;lon;timestamp;pressure;altitude;pressure_sealevel;temperature;humidity
21300;BME280;10809;49.476;11.016;2023-01-29T00:00:43;99476.50;;;-1.62;62.13
21300;BME280;10809;49.476;11.016;2023-01-29T00:03:14;99481.72;;;-1.59;62.82
21300;BME280;10809;49.476;11.016;2023-01-29T00:05:45;99485.22;;;-1.55;62.96
21300;BME280;10809;49.476;11.016;2023-01-29T00:08:15;99481.78;;;-1.53;62.55
21300;BME280;10809;49.476;11.016;2023-01-29T00:10:46;99485.31;;;-1.49;62.34
21300;BME280;10809;49.476;11.016;2023-01-29T00:13:17;99486.22;;;-1.46;62.67
21300;BME280;10809;49.476;11.016;2023-01-29T00:15:54;99487.09;;;-1.45;62.41
21300;BME280;10809;49.476;11.016;2023-01-29T00:18:26;99485.34;;;-1.46;62.09
21300;BME280;10809;49.476;11.016;2023-01-29T00:20:57;99485.34;;;-1.46;62.21
21300;BME280;10809;49.476;11.016;2023-01-29T00:23:27;99492.28;;;-1.45;62.04
21300;BME280;10809;49.476;11.016;2023-01-29T00:25:59;99480.16;;;-1.45;62.44
21300;BME280;10809;49.476;11.016;2023-01-29T00:28:29;99480.16;;;-1.43;62.37
21300;BME280;10809;49.476;11.016;2023-01-29T00:31:11;99474.16;;;-1.41;62.13
21300;BME280;10809;49.476;11.016;2023-01-29T00:33:42;99475.03;;;-1.39;62.09
21300;BME280;10809;49.476;11.016;2023-01-29T00:36:14;99472.44;;;-1.37;62.47
21300;BME280;10809;49.476;11.016;2023-01-29T00:38:44;99465.53;;;-1.37;62.46
21300;BME280;10809;49.476;11.016;2023-01-29T00:41:29;99462.94;;;-1.35;62.03
21300;BME280;10809;49.476;11.016;2023-01-29T00:44:18;99463.84;;;-1.33;61.95
21300;BME280;10809;49.476;11.016;2023-01-29T00:47:07;99459.47;;;-1.36;61.74
21300;BME280;10809;49.476;11.016;2023-01-29T00:50:04;99460.31;;;-1.38;61.89
21300;BME280;10809;49.476;11.016;2023-01-29T00:52:35;99464.63;;;-1.40;61.82
21300;BME280;10809;49.476;11.016;2023-01-29T00:55:07;99457.66;;;-1.44;62.01
21300;BME280;10809;49.476;11.016;2023-01-29T00:57:38;99462.81;;;-1.47;61.77
21300;BME280;10809;49.476;11.016;2023-01-29T01:00:11;99456.75;;;-1.48;62.22
21300;BME280;10809;49.476;11.016;2023-01-29T01:02:43;99458.47;;;-1.48;61.65
21300;BME280;10809;49.476;11.016;2023-01-29T01:05:32;99458.47;;;-1.48;61.79
21300;BME280;10809;49.476;11.016;2023-01-29T01:08:03;99466.25;;;-1.48;61.88
21300;BME280;10809;49.476;11.016;2023-01-29T01:11:02;99456.72;;;-1.52;61.80
21300;BME280;10809;49.476;11.016;2023-01-29T01:13:36;99461.00;;;-1.54;61.55
21300;BME280;10809;49.476;11.016;2023-01-29T01:16:11;99458.34;;;-1.59;61.40
21300;BME280;10809;49.476;11.016;2023-01-29T01:18:42;99465.25;;;-1.64;61.77
21300;BME280;10809;49.476;11.016;2023-01-29T01:21:12;99464.31;;;-1.67;61.74
21300;BME280;10809;49.476;11.016;2023-01-29T01:23:43;99465.16;;;-1.73;61.61
21300;BME280;10809;49.476;11.016;2023-01-29T01:26:13;99461.63;;;-1.76;61.41
21300;BME280;10809;49.476;11.016;2023-01-29T01:28:43;99458.09;;;-1.81;61.64
21300;BME280;10809;49.476;11.016;2023-01-29T01:31:14;99461.53;;;-1.84;61.46
21300;BME280;10809;49.476;11.016;2023-01-29T01:33:44;99459.84;;;-1.83;61.86
21300;BME280;10809;49.476;11.016;2023-01-29T01:36:15;99452.03;;;-1.85;61.87
21300;BME280;10809;49.476;11.016;2023-01-29T01:38:46;99465.84;;;-1.86;61.55
21300;BME280;10809;49.476;11.016;2023-01-29T01:41:19;99459.78;;;-1.88;61.81
21300;BME280;10809;49.476;11.016;2023-01-29T01:43:57;99461.50;;;-1.88;61.97
21300;BME280;10809;49.476;11.016;2023-01-29T01:46:34;99463.19;;;-1.89;61.67
21300;BME280;10809;49.476;11.016;2023-01-29T01:49:13;99467.53;;;-1.89;61.51
21300;BME280;10809;49.476;11.016;2023-01-29T01:51:47;99463.19;;;-1.90;61.66
21300;BME280;10809;49.476;11.016;2023-01-29T01:54:26;99460.53;;;-1.95;61.28
21300;BME280;10809;49.476;11.016;2023-01-29T01:57:07;99463.09;;;-1.98;61.37
21300;BME280;10809;49.476;11.016;2023-01-29T01:59:47;99467.34;;;-2.01;61.39
21300;BME280;10809;49.476;11.016;2023-01-29T02:02:19;99464.72;;;-2.06;61.66
21300;BME280;10809;49.476;11.016;2023-01-29T02:05:10;99456.88;;;-2.09;62.02
21300;BME280;10809;49.476;11.016;2023-01-29T02:08:00;99459.47;;;-2.10;61.61
21300;BME280;10809;49.476;11.016;2023-01-29T02:10:49;99456.81;;;-2.13;61.37
21300;BME280;10809;49.476;11.016;2023-01-29T02:13:20;99461.16;;;-2.15;61.92
21300;BME280;10809;49.476;11.016;2023-01-29T02:15:50;99464.56;;;-2.18;61.99
21300;BME280;10809;49.476;11.016;2023-01-29T02:18:21;99468.88;;;-2.18;61.47
21300;BME280;10809;49.476;11.016;2023-01-29T02:29:15;99464.50;;;-2.22;61.73
21300;BME280;10809;49.476;11.016;2023-01-29T02:32:40;99457.59;;;-2.22;61.51
21300;BME280;10809;49.476;11.016;2023-01-29T02:35:10;99453.28;;;-2.21;62.07
21300;BME280;10809;49.476;11.016;2023-01-29T02:40:54;99443.81;;;-2.18;62.04
21300;BME280;10809;49.476;11.016;2023-01-29T02:43:40;99441.19;;;-2.19;61.89
21300;BME280;10809;49.476;11.016;2023-01-29T02:46:32;99438.56;;;-2.21;61.83
21300;BME280;10809;49.476;11.016;2023-01-29T02:49:30;99437.72;;;-2.21;62.14
21300;BME280;10809;49.476;11.016;2023-01-29T02:52:08;99443.75;;;-2.21;61.67
21300;BME280;10809;49.476;11.016;2023-01-29T02:54:53;99440.34;;;-2.20;61.54
21300;BME280;10809;49.476;11.016;2023-01-29T02:57:28;99455.00;;;-2.20;61.71
21300;BME280;10809;49.476;11.016;2023-01-29T03:00:07;99443.75;;;-2.22;61.79
21300;BME280;10809;49.476;11.016;2023-01-29T03:05:42;99450.69;;;-2.21;61.51
21300;BME280;10809;49.476;11.016;2023-01-29T03:08:17;99448.97;;;-2.19;61.88
21300;BME280;10809;49.476;11.016;2023-01-29T03:10:56;99443.78;;;-2.19;61.76
21300;BME280;10809;49.476;11.016;2023-01-29T03:13:52;99461.97;;;-2.16;62.13
21300;BME280;10809;49.476;11.016;2023-01-29T03:19:10;99465.50;;;-2.11;61.74
21300;BME280;10809;49.476;11.016;2023-01-29T03:21:53;99458.63;;;-2.11;61.52
21300;BME280;10809;49.476;11.016;2023-01-29T03:27:51;99471.56;;;-2.12;61.84
21300;BME280;10809;49.476;11.016;2023-01-29T03:30:49;99462.03;;;-2.12;61.84
21300;BME280;10809;49.476;11.016;2023-01-29T03:33:51;99459.44;;;-2.12;61.88
21300;BME280;10809;49.476;11.016;2023-01-29T03:36:33;99458.63;;;-2.11;61.67
21300;BME280;10809;49.476;11.016;2023-01-29T03:39:11;99478.53;;;-2.08;61.75
21300;BME280;10809;49.476;11.016;2023-01-29T03:41:47;99475.94;;;-2.07;61.86
21300;BME280;10809;49.476;11.016;2023-01-29T03:47:45;99466.44;;;-2.06;61.37
21300;BME280;10809;49.476;11.016;2023-01-29T03:50:38;99461.19;;;-2.11;61.79
21300;BME280;10809;49.476;11.016;2023-01-29T03:56:33;99467.19;;;-2.13;61.37
21300;BME280;10809;49.476;11.016;2023-01-29T04:04:45;99487.84;;;-2.22;61.50
21300;BME280;10809;49.476;11.016;2023-01-29T04:07:19;99488.69;;;-2.23;61.63
21300;BME280;10809;49.476;11.016;2023-01-29T04:10:08;99481.78;;;-2.24;61.53
21300;BME280;10809;49.476;11.016;2023-01-29T04:12:48;99484.38;;;-2.24;61.37
21300;BME280;10809;49.476;11.016;2023-01-29T04:15:21;99486.91;;;-2.27;61.30
21300;BME280;10809;49.476;11.016;2023-01-29T04:17:55;99490.34;;;-2.28;61.66
21300;BME280;10809;49.476;11.016;2023-01-29T04:20:42;99481.72;;;-2.29;61.98
21300;BME280;10809;49.476;11.016;2023-01-29T04:23:22;99492.06;;;-2.30;61.57
21300;BME280;10809;49.476;11.016;2023-01-29T04:29:44;99474.75;;;-2.31;61.76
21300;BME280;10809;49.476;11.016;2023-01-29T04:32:15;99468.72;;;-2.32;61.29
21300;BME280;10809;49.476;11.016;2023-01-29T04:38:17;99477.28;;;-2.34;61.30
21300;BME280;10809;49.476;11.016;2023-01-29T04:41:49;99473.84;;;-2.35;61.55
21300;BME280;10809;49.476;11.016;2023-01-29T04:44:01;99475.56;;;-2.35;61.80
21300;BME280;10809;49.476;11.016;2023-01-29T04:51:57;99479.00;;;-2.38;61.59
21300;BME280;10809;49.476;11.016;2023-01-29T04:55:00;99485.03;;;-2.37;61.20
21300;BME280;10809;49.476;11.016;2023-01-29T04:57:42;99474.63;;;-2.39;61.31
21300;BME280;10809;49.476;11.016;2023-01-29T05:00:42;99477.22;;;-2.39;61.49
21300;BME280;10809;49.476;11.016;2023-01-29T05:03:14;99466.03;;;-2.38;61.34
21300;BME280;10809;49.476;11.016;2023-01-29T05:05:47;99457.41;;;-2.35;61.45
21300;BME280;10809;49.476;11.016;2023-01-29T05:08:20;99455.75;;;-2.32;61.96
21300;BME280;10809;49.476;11.016;2023-01-29T05:10:54;99459.22;;;-2.28;61.68
21300;BME280;10809;49.476;11.016;2023-01-29T05:13:29;99448.06;;;-2.24;62.30
21300;BME280;10809;49.476;11.016;2023-01-29T05:16:04;99455.00;;;-2.20;61.82
21300;BME280;10809;49.476;11.016;2023-01-29T05:18:37;99461.97;;;-2.16;61.73
21300;BME280;10809;49.476;11.016;2023-01-29T05:21:08;99463.75;;;-2.14;61.98
21300;BME280;10809;49.476;11.016;2023-01-29T05:23:39;99457.72;;;-2.13;61.89
21300;BME280;10809;49.476;11.016;2023-01-29T05:26:22;99461.22;;;-2.09;61.79
21300;BME280;10809;49.476;11.016;2023-01-29T05:29:11;99455.16;;;-2.08;61.70
21300;BME280;10809;49.476;11.016;2023-01-29T05:31:43;99449.13;;;-2.07;61.60
21300;BME280;10809;49.476;11.016;2023-01-29T05:34:13;99435.31;;;-2.06;61.82
21300;BME280;10809;49.476;11.016;2023-01-29T05:36:44;99438.75;;;-2.06;61.36
21300;BME280;10809;49.476;11.016;2023-01-29T05:39:15;99431.88;;;-2.04;61.63
21300;BME280;10809;49.476;11.016;2023-01-29T05:41:45;99426.72;;;-2.02;61.56
21300;BME280;10809;49.476;11.016;2023-01-29T05:44:16;99427.59;;;-2.00;61.72
21300;BME280;10809;49.476;11.016;2023-01-29T05:46:46;99413.78;;;-1.99;61.39
21300;BME280;10809;49.476;11.016;2023-01-29T05:49:17;99408.63;;;-1.96;61.74
21300;BME280;10809;49.476;11.016;2023-01-29T05:51:49;99413.81;;;-1.95;61.71
21300;BME280;10809;49.476;11.016;2023-01-29T05:54:20;99416.44;;;-1.93;61.38
21300;BME280;10809;49.476;11.016;2023-01-29T05:56:50;99417.34;;;-1.91;61.47
21300;BME280;10809;49.476;11.016;2023-01-29T05:59:21;99420.81;;;-1.91;61.52
21300;BME280;10809;49.476;11.016;2023-01-29T06:01:51;99410.44;;;-1.91;61.62
21300;BME280;10809;49.476;11.016;2023-01-29T06:04:22;99414.75;;;-1.91;61.34
21300;BME280;10809;49.476;11.016;2023-01-29T06:06:52;99414.72;;;-1.93;61.05
21300;BME280;10809;49.476;11.016;2023-01-29T06:09:23;99414.72;;;-1.93;61.23
21300;BME280;10809;49.476;11.016;2023-01-29T06:11:53;99423.38;;;-1.94;61.09
21300;BME280;10809;49.476;11.016;2023-01-29T06:14:24;99429.41;;;-1.93;61.16
21300;BME280;10809;49.476;11.016;2023-01-29T06:16:54;99419.88;;;-1.96;61.54
21300;BME280;10809;49.476;11.016;2023-01-29T06:19:25;99422.50;;;-1.94;61.38
21300;BME280;10809;49.476;11.016;2023-01-29T06:21:55;99425.09;;;-1.94;61.36
21300;BME280;10809;49.476;11.016;2023-01-29T06:24:26;99420.78;;;-1.92;61.64
21300;BME280;10809;49.476;11.016;2023-01-29T06:26:56;99425.13;;;-1.91;61.67
21300;BME280;10809;49.476;11.016;2023-01-29T06:29:27;99428.63;;;-1.89;61.68
21300;BME280;10809;49.476;11.016;2023-01-29T06:31:57;99425.16;;;-1.88;61.70
21300;BME280;10809;49.476;11.016;2023-01-29T06:34:28;99416.50;;;-1.87;61.35
21300;BME280;10809;49.476;11.016;2023-01-29T06:36:58;99422.59;;;-1.85;61.55
21300;BME280;10809;49.476;11.016;2023-01-29T06:39:29;99424.31;;;-1.86;61.47
21300;BME280;10809;49.476;11.016;2023-01-29T06:41:59;99434.69;;;-1.86;61.43
21300;BME280;10809;49.476;11.016;2023-01-29T06:44:29;99436.47;;;-1.85;61.05
21300;BME280;10809;49.476;11.016;2023-01-29T06:47:00;99440.75;;;-1.85;61.08
21300;BME280;10809;49.476;11.016;2023-01-29T06:49:31;99434.72;;;-1.84;61.20
21300;BME280;10809;49.476;11.016;2023-01-29T06:52:01;99437.31;;;-1.84;61.46
21300;BME280;10809;49.476;11.016;2023-01-29T06:54:31;99445.97;;;-1.84;61.29
21300;BME280;10809;49.476;11.016;2023-01-29T06:57:02;99446.84;;;-1.83;61.38
21300;BME280;10809;49.476;11.016;2023-01-29T06:59:32;99450.28;;;-1.83;61.23
21300;BME280;10809;49.476;11.016;2023-01-29T07:02:03;99449.44;;;-1.83;61.20
21300;BME280;10809;49.476;11.016;2023-01-29T07:04:34;99458.09;;;-1.83;61.28
21300;BME280;10809;49.476;11.016;2023-01-29T07:07:06;99453.75;;;-1.84;61.18
21300;BME280;10809;49.476;11.016;2023-01-29T07:09:42;99458.94;;;-1.84;61.13
21300;BME280;10809;49.476;11.016;2023-01-29T07:12:13;99458.94;;;-1.85;61.20
21300;BME280;10809;49.476;11.016;2023-01-29T07:14:43;99464.97;;;-1.88;61.12
21300;BME280;10809;49.476;11.016;2023-01-29T07:17:13;99463.19;;;-1.89;60.84
21300;BME280;10809;49.476;11.016;2023-01-29T07:19:44;99467.53;;;-1.89;61.07
21300;BME280;10809;49.476;11.016;2023-01-29T07:22:14;99465.78;;;-1.89;61.00
21300;BME280;10809;49.476;11.016;2023-01-29T07:24:45;99468.41;;;-1.89;60.92
21300;BME280;10809;49.476;11.016;2023-01-29T07:27:17;99459.75;;;-1.89;60.87
21300;BME280;10809;49.476;11.016;2023-01-29T07:29:48;99458.91;;;-1.88;61.25
21300;BME280;10809;49.476;11.016;2023-01-29T07:32:18;99458.03;;;-1.87;61.38
21300;BME280;10809;49.476;11.016;2023-01-29T07:34:48;99458.03;;;-1.86;61.41
21300;BME280;10809;49.476;11.016;2023-01-29T07:37:19;99456.34;;;-1.84;61.17
21300;BME280;10809;49.476;11.016;2023-01-29T07:39:49;99454.63;;;-1.85;60.82
21300;BME280;10809;49.476;11.016;2023-01-29T07:42:20;99448.59;;;-1.82;61.16
21300;BME280;10809;49.476;11.016;2023-01-29T07:44:50;99453.78;;;-1.82;61.11
21300;BME280;10809;49.476;11.016;2023-01-29T07:47:21;99458.97;;;-1.82;60.75
21300;BME280;10809;49.476;11.016;2023-01-29T07:49:51;99465.88;;;-1.81;61.34
21300;BME280;10809;49.476;11.016;2023-01-29T07:52:22;99469.38;;;-1.79;61.24
21300;BME280;10809;49.476;11.016;2023-01-29T07:54:52;99459.88;;;-1.79;61.06
21300;BME280;10809;49.476;11.016;2023-01-29T07:57:23;99476.31;;;-1.77;60.85
21300;BME280;10809;49.476;11.016;2023-01-29T07:59:54;99472.91;;;-1.76;61.38
21300;BME280;10809;49.476;11.016;2023-01-29T08:02:24;99479.84;;;-1.73;61.58
21300;BME280;10809;49.476;11.016;2023-01-29T08:04:55;99489.34;;;-1.72;60.92
21300;BME280;10809;49.476;11.016;2023-01-29T08:07:25;99494.56;;;-1.71;60.91
21300;BME280;10809;49.476;11.016;2023-01-29T08:09:56;99497.19;;;-1.69;61.12
21300;BME280;10809;49.476;11.016;2023-01-29T08:12:26;99495.47;;;-1.67;61.46
21300;BME280;10809;49.476;11.016;2023-01-29T08:14:57;99499.81;;;-1.65;61.21
21300;BME280;10809;49.476;11.016;2023-01-29T08:17:27;99493.81;;;-1.64;61.40
21300;BME280;10809;49.476;11.016;2023-01-29T08:19:57;99497.25;;;-1.62;61.36
21300;BME280;10809;49.476;11.016;2023-01-29T08:22:28;99497.28;;;-1.60;60.92
21300;BME280;10809;49.476;11.016;2023-01-29T08:24:58;99490.38;;;-1.60;61.13
21300;BME280;10809;49.476;11.016;2023-01-29T08:27:29;99501.66;;;-1.59;61.14
21300;BME280;10809;49.476;11.016;2023-01-29T08:29:59;99492.09;;;-1.60;60.81
21300;BME280;10809;49.476;11.016;2023-01-29T08:32:30;99490.38;;;-1.60;60.97
21300;BME280;10809;49.476;11.016;2023-01-29T08:35:00;99495.56;;;-1.60;61.10
21300;BME280;10809;49.476;11.016;2023-01-29T08:37:31;99501.66;;;-1.59;61.02
21300;BME280;10809;49.476;11.016;2023-01-29T08:40:02;99500.78;;;-1.58;61.06
21300;BME280;10809;49.476;11.016;2023-01-29T08:42:33;99500.78;;;-1.57;60.87
21300;BME280;10809;49.476;11.016;2023-01-29T08:45:03;99501.69;;;-1.55;60.73
21300;BME280;10809;49.476;11.016;2023-01-29T08:47:34;99497.34;;;-1.54;60.98
21300;BME280;10809;49.476;11.016;2023-01-29T08:50:05;99502.56;;;-1.53;60.86
21300;BME280;10809;49.476;11.016;2023-01-29T08:52:36;99507.78;;;-1.51;61.04
21300;BME280;10809;49.476;11.016;2023-01-29T08:55:07;99508.66;;;-1.49;60.80
21300;BME280;10809;49.476;11.016;2023-01-29T08:57:38;99509.56;;;-1.47;60.97
21300;BME280;10809;49.476;11.016;2023-01-29T09:00:09;99501.81;;;-1.44;60.84
21300;BME280;10809;49.476;11.016;2023-01-29T09:02:40;99492.31;;;-1.44;60.79
21300;BME280;10809;49.476;11.016;2023-01-29T09:05:10;99504.47;;;-1.38;61.37
21300;BME280;10809;49.476;11.016;2023-01-29T09:07:40;99497.59;;;-1.35;60.94
21300;BME280;10809;49.476;11.016;2023-01-29T09:10:11;99495.91;;;-1.30;61.57
21300;BME280;10809;49.476;11.016;2023-01-29T09:12:42;99488.13;;;-1.27;61.11
21300;BME280;10809;49.476;11.016;2023-01-29T09:15:13;99495.97;;;-1.22;60.90
21300;BME280;10809;49.476;11.016;2023-01-29T09:17:43;99493.41;;;-1.19;60.86
21300;BME280;10809;49.476;11.016;2023-01-29T09:20:14;99505.59;;;-1.13;60.98
21300;BME280;10809;49.476;11.016;2023-01-29T09:22:45;99500.41;;;-1.12;61.00
21300;BME280;10809;49.476;11.016;2023-01-29T09:25:16;99497.84;;;-1.09;60.90
21300;BME280;10809;49.476;11.016;2023-01-29T09:27:46;99500.47;;;-1.06;60.85
21300;BME280;10809;49.476;11.016;2023-01-29T09:30:17;99499.63;;;-1.05;60.50
21300;BME280;10809;49.476;11.016;2023-01-29T09:32:47;99490.94;;;-1.04;60.62
21300;BME280;10809;49.476;11.016;2023-01-29T09:35:18;99484.03;;;-1.03;60.92
21300;BME280;10809;49.476;11.016;2023-01-29T09:37:49;99484.91;;;-1.04;60.84
21300;BME280;10809;49.476;11.016;2023-01-29T09:43:20;99480.59;;;-1.01;60.56
21300;BME280;10809;49.476;11.016;2023-01-29T09:46:04;99471.94;;;-1.00;60.82
21300;BME280;10809;49.476;11.016;2023-01-29T09:48:36;99477.16;;;-0.97;60.86
21300;BME280;10809;49.476;11.016;2023-01-29T09:51:14;99471.13;;;-0.94;60.78
21300;BME280;10809;49.476;11.016;2023-01-29T09:54:03;99462.50;;;-0.90;61.01
21300;BME280;10809;49.476;11.016;2023-01-29T09:56:35;99458.19;;;-0.87;61.08
21300;BME280;10809;49.476;11.016;2023-01-29T09:59:09;99455.59;;;-0.84;60.78
21300;BME280;10809;49.476;11.016;2023-01-29T10:02:17;99451.31;;;-0.79;60.79
21300;BME280;10809;49.476;11.016;2023-01-29T10:05:10;99451.34;;;-0.76;60.56
21300;BME280;10809;49.476;11.016;2023-01-29T10:13:43;99445.38;;;-0.61;60.80
21300;BME280;10809;49.476;11.016;2023-01-29T10:16:24;99459.28;;;-0.56;60.71
21300;BME280;10809;49.476;11.016;2023-01-29T10:24:52;99468.88;;;-0.46;60.53
21300;BME280;10809;49.476;11.016;2023-01-29T10:27:31;99458.50;;;-0.45;60.39
21300;BME280;10809;49.476;11.016;2023-01-29T10:30:06;99446.38;;;-0.44;60.15
21300;BME280;10809;49.476;11.016;2023-01-29T10:32:38;99455.03;;;-0.44;59.80
21300;BME280;10809;49.476;11.016;2023-01-29T10:37:42;99474.06;;;-0.48;59.79
21300;BME280;10809;49.476;11.016;2023-01-29T10:51:12;99475.81;;;-0.50;60.14
21300;BME280;10809;49.476;11.016;2023-01-29T11:02:42;99448.16;;;-0.39;59.98
21300;BME280;10809;49.476;11.016;2023-01-29T11:05:28;99442.97;;;-0.36;60.17
21300;BME280;10809;49.476;11.016;2023-01-29T11:08:15;99429.97;;;-0.33;59.81
21300;BME280;10809;49.476;11.016;2023-01-29T11:11:07;99415.22;;;-0.31;59.96
21300;BME280;10809;49.476;11.016;2023-01-29T11:13:48;99408.31;;;-0.29;60.12
21300;BME280;10809;49.476;11.016;2023-01-29T11:16:20;99405.72;;;-0.26;59.96
21300;BME280;10809;49.476;11.016;2023-01-29T11:18:56;99402.25;;;-0.25;59.66
21300;BME280;10809;49.476;11.016;2023-01-29T11:21:28;99404.00;;;-0.24;59.77
21300;BME280;10809;49.476;11.016;2023-01-29T11:24:09;99392.72;;;-0.24;59.45
21300;BME280;10809;49.476;11.016;2023-01-29T11:26:41;99391.84;;;-0.22;59.69
21300;BME280;10809;49.476;11.016;2023-01-29T11:29:38;99385.78;;;-0.24;59.80
21300;BME280;10809;49.476;11.016;2023-01-29T11:42:49;99350.22;;;-0.17;59.75
21300;BME280;10809;49.476;11.016;2023-01-29T11:47:56;99345.03;;;-0.14;59.60
21300;BME280;10809;49.476;11.016;2023-01-29T11:50:28;99345.94;;;-0.11;59.53
21300;BME280;10809;49.476;11.016;2023-01-29T11:53:00;99344.22;;;-0.09;59.74
21300;BME280;10809;49.476;11.016;2023-01-29T11:55:34;99352.88;;;-0.07;59.50
21300;BME280;10809;49.476;11.016;2023-01-29T11:58:17;99346.81;;;-0.04;59.15
21300;BME280;10809;49.476;11.016;2023-01-29T12:00:50;99334.66;;;-0.04;59.46
21300;BME280;10809;49.476;11.016;2023-01-29T12:03:36;99330.31;;;-0.05;59.07
21300;BME280;10809;49.476;11.016;2023-01-29T12:06:33;99319.03;;;-0.05;59.30
21300;BME280;10809;49.476;11.016;2023-01-29T12:09:09;99317.31;;;-0.06;59.10
21300;BME280;10809;49.476;11.016;2023-01-29T12:11:40;99312.97;;;-0.06;58.93
21300;BME280;10809;49.476;11.016;2023-01-29T12:14:30;99312.09;;;-0.06;59.24
21300;BME280;10809;49.476;11.016;2023-01-29T12:17:17;99312.97;;;-0.06;59.00
21300;BME280;10809;49.476;11.016;2023-01-29T12:19:53;99309.50;;;-0.06;59.18
21300;BME280;10809;49.476;11.016;2023-01-29T12:25:37;99293.00;;;-0.04;59.22
21300;BME280;10809;49.476;11.016;2023-01-29T12:28:27;99298.22;;;0.01;58.97
21300;BME280;10809;49.476;11.016;2023-01-29T12:31:28;99296.50;;;0.04;59.19
21300;BME280;10809;49.476;11.016;2023-01-29T12:37:20;99286.09;;;0.10;59.49
21300;BME280;10809;49.476;11.016;2023-01-29T12:39:51;99285.25;;;0.11;59.05
21300;BME280;10809;49.476;11.016;2023-01-29T12:42:23;99270.47;;;0.13;59.07
21300;BME280;10809;49.476;11.016;2023-01-29T12:44:59;99265.28;;;0.16;59.20
21300;BME280;10809;49.476;11.016;2023-01-29T12:47:40;99249.66;;;0.16;58.84
21300;BME280;10809;49.476;11.016;2023-01-29T12:50:20;99256.63;;;0.19;59.34
21300;BME280;10809;49.476;11.016;2023-01-29T12:55:29;99249.66;;;0.24;58.96
21300;BME280;10809;49.476;11.016;2023-01-29T12:58:11;99242.72;;;0.27;59.48
21300;BME280;10809;49.476;11.016;2023-01-29T13:00:45;99254.88;;;0.31;58.96
21300;BME280;10809;49.476;11.016;2023-01-29T13:03:58;99237.53;;;0.33;59.39
21300;BME280;10809;49.476;11.016;2023-01-29T13:06:37;99237.50;;;0.39;58.99
21300;BME280;10809;49.476;11.016;2023-01-29T13:09:19;99242.72;;;0.42;58.91
21300;BME280;10809;49.476;11.016;2023-01-29T13:11:58;99241.00;;;0.47;58.84
21300;BME280;10809;49.476;11.016;2023-01-29T13:17:44;99234.91;;;0.54;58.73
21300;BME280;10809;49.476;11.016;2023-01-29T13:20:20;99238.38;;;0.56;58.81
21300;BME280;10809;49.476;11.016;2023-01-29T13:22:55;99238.38;;;0.56;58.59
21300;BME280;10809;49.476;11.016;2023-01-29T13:25:27;99237.50;;;0.56;58.30
21300;BME280;10809;49.476;11.016;2023-01-29T13:27:57;99231.41;;;0.57;58.45
21300;BME280;10809;49.476;11.016;2023-01-29T13:30:32;99234.91;;;0.54;58.45
21300;BME280;10809;49.476;11.016;2023-01-29T13:33:05;99222.75;;;0.52;58.25
21300;BME280;10809;49.476;11.016;2023-01-29T13:35:41;99220.16;;;0.50;58.17
21300;BME280;10809;49.476;11.016;2023-01-29T13:38:30;99220.16;;;0.47;58.17
21300;BME280;10809;49.476;11.016;2023-01-29T13:41:06;99219.28;;;0.45;57.92
21300;BME280;10809;49.476;11.016;2023-01-29T13:43:40;99213.19;;;0.42;58.29
21300;BME280;10809;49.476;11.016;2023-01-29T13:46:12;99213.19;;;0.39;57.83
21300;BME280;10809;49.476;11.016;2023-01-29T13:48:46;99208.00;;;0.36;57.87
21300;BME280;10809;49.476;11.016;2023-01-29T13:51:20;99211.47;;;0.35;58.28
21300;BME280;10809;49.476;11.016;2023-01-29T13:53:59;99217.56;;;0.34;58.33
21300;BME280;10809;49.476;11.016;2023-01-29T13:59:05;99212.34;;;0.35;58.48
21300;BME280;10809;49.476;11.016;2023-01-29T14:06:58;99207.13;;;0.41;58.55
21300;BME280;10809;49.476;11.016;2023-01-29T14:17:26;99226.19;;;0.51;58.24
21300;BME280;10809;49.476;11.016;2023-01-29T14:20:03;99214.94;;;0.52;58.36
21300;BME280;10809;49.476;11.016;2023-01-29T14:22:53;99203.63;;;0.54;58.54
21300;BME280;10809;49.476;11.016;2023-01-29T14:25:33;99198.41;;;0.54;58.38
21300;BME280;10809;49.476;11.016;2023-01-29T14:28:15;99198.41;;;0.56;58.04
21300;BME280;10809;49.476;11.016;2023-01-29T14:30:50;99195.81;;;0.57;58.47
21300;BME280;10809;49.476;11.016;2023-01-29T14:33:27;99184.50;;;0.58;58.42
21300;BME280;10809;49.476;11.016;2023-01-29T14:36:10;99187.13;;;0.58;58.15
21300;BME280;10809;49.476;11.016;2023-01-29T14:38:49;99204.50;;;0.61;58.13
21300;BME280;10809;49.476;11.016;2023-01-29T14:41:24;99200.16;;;0.61;58.12
21300;BME280;10809;49.476;11.016;2023-01-29T14:47:17;99189.75;;;0.60;57.94
21300;BME280;10809;49.476;11.016;2023-01-29T14:52:31;99189.72;;;0.58;58.21
21300;BME280;10809;49.476;11.016;2023-01-29T14:55:13;99188.00;;;0.57;57.93
21300;BME280;10809;49.476;11.016;2023-01-29T14:57:44;99186.28;;;0.55;57.98
21300;BME280;10809;49.476;11.016;2023-01-29T15:00:21;99178.47;;;0.52;58.09
21300;BME280;10809;49.476;11.016;2023-01-29T15:02:53;99184.53;;;0.49;57.82
21300;BME280;10809;49.476;11.016;2023-01-29T15:05:29;99189.75;;;0.46;58.03
21300;BME280;10809;49.476;11.016;2023-01-29T15:08:12;99190.63;;;0.44;57.94
21300;BME280;10809;49.476;11.016;2023-01-29T15:10:48;99176.72;;;0.40;57.50
21300;BME280;10809;49.476;11.016;2023-01-29T15:13:49;99170.69;;;0.35;57.59
21300;BME280;10809;49.476;11.016;2023-01-29T15:16:24;99181.09;;;0.32;57.79
21300;BME280;10809;49.476;11.016;2023-01-29T15:19:10;99175.91;;;0.29;57.77
21300;BME280;10809;49.476;11.016;2023-01-29T15:24:37;99171.53;;;0.22;57.75
21300;BME280;10809;49.476;11.016;2023-01-29T15:27:12;99166.34;;;0.19;57.53
21300;BME280;10809;49.476;11.016;2023-01-29T15:29:52;99168.94;;;0.16;58.12
21300;BME280;10809;49.476;11.016;2023-01-29T15:32:34;99157.69;;;0.11;57.83
21300;BME280;10809;49.476;11.016;2023-01-29T15:38:21;99160.25;;;0.04;57.63
21300;BME280;10809;49.476;11.016;2023-01-29T15:40:56;99154.22;;;-0.01;57.65
21300;BME280;10809;49.476;11.016;2023-01-29T15:43:29;99141.19;;;-0.04;57.95
21300;BME280;10809;49.476;11.016;2023-01-29T15:46:02;99142.94;;;-0.08;57.79
21300;BME280;10809;49.476;11.016;2023-01-29T15:48:36;99149.84;;;-0.11;57.98
21300;BME280;10809;49.476;11.016;2023-01-29T15:51:11;99151.63;;;-0.15;57.84
21300;BME280;10809;49.476;11.016;2023-01-29T15:53:50;99157.66;;;-0.17;57.81